Meteorología y climatología de Navarra
Datos de la estación - Meteo Navarra

Estación de Bera (Larrategaña) GN

Altitud 306 m.


Datos desde el 14/08/2019 hasta el 15/08/2019 en horario solar
Los datos son PROVISIONALES

Anterior Página 1 de 1 Siguiente Descargar: Formato para Excel 2000 o superior   Formato csv   Formato para OpenOffice Calc
Fecha Temperatura Humedad relativa Radiación global Insolación Precipitación Vel. viento 10 m Vel. viento 10 m Dir. viento 10 m
ºC % W/m² s l/m² m/s km/h º
14/08/2019 0:00 12.2 99 0.0 0 0.0 1.3 4.8 236
14/08/2019 0:10 12.2 99 0.0 0 0.0 1.1 4.0 246
14/08/2019 0:20 12.2 98 0.0 0 0.0 1.2 4.4 235
14/08/2019 0:30 12.1 98 0.0 0 0.0 1.5 5.5 229
14/08/2019 0:40 11.9 99 0.0 0 0.0 2.0 7.2 232
14/08/2019 0:50 11.6 99 0.0 0 0.0 2.1 7.6 229
14/08/2019 1:00 11.3 99 0.0 0 0.0 2.0 7.1 235
14/08/2019 1:10 11.1 99 0.0 0 0.0 2.5 9.0 232
14/08/2019 1:20 11.0 100 0.0 0 0.0 2.9 10.5 233
14/08/2019 1:30 10.9 100 0.0 0 0.0 2.5 9.0 234
14/08/2019 1:40 11.0 100 0.0 0 0.0 2.0 7.3 237
14/08/2019 1:50 11.0 100 0.0 0 0.0 0.9 3.2 246
14/08/2019 2:00 11.1 100 0.0 0 0.0 1.4 4.9 239
14/08/2019 2:10 10.9 100 0.0 0 0.0 1.8 6.5 228
14/08/2019 2:20 11.1 100 0.0 0 0.0 1.9 6.8 235
14/08/2019 2:30 11.1 100 0.0 0 0.0 2.4 8.6 231
14/08/2019 2:40 11.0 100 0.0 0 0.0 2.6 9.3 228
14/08/2019 2:50 10.9 100 0.0 0 0.0 2.7 9.8 229
14/08/2019 3:00 10.8 100 0.0 0 0.0 2.1 7.6 229
14/08/2019 3:10 10.7 100 0.0 0 0.0 1.0 3.6 242
14/08/2019 3:20 10.5 100 0.0 0 0.0 1.0 3.6 211
14/08/2019 3:30 10.5 100 0.0 0 0.0 1.7 6.1 233
14/08/2019 3:40 10.5 100 0.0 0 0.0 1.8 6.5 233
14/08/2019 3:50 10.5 100 0.0 0 0.0 3.0 10.7 222
14/08/2019 4:00 10.5 100 0.0 0 0.0 2.6 9.3 238
14/08/2019 4:10 10.5 100 0.0 0 0.0 2.0 7.1 241
14/08/2019 4:20 10.5 100 0.0 0 0.1 3.7 13.2 218
14/08/2019 4:30 10.5 100 0.0 0 0.0 3.5 12.7 226
14/08/2019 4:40 10.6 100 0.0 0 0.0 3.1 11.1 226
14/08/2019 4:50 10.6 100 0.0 0 0.0 2.1 7.6 225
14/08/2019 5:00 10.6 100 0.0 0 0.0 2.5 9.0 226
14/08/2019 5:10 10.7 100 0.0 0 0.0 1.8 6.3 231
14/08/2019 5:20 10.7 100 0.0 0 0.0 1.2 4.1 276
14/08/2019 5:30 10.7 100 15.8 0 0.0 1.6 5.6 230
14/08/2019 5:40 10.6 100 21.5 0 0.0 2.7 9.5 200
14/08/2019 5:50 10.5 100 22.5 0 0.0 2.2 7.9 220
14/08/2019 6:00 10.7 100 33.6 0 0.0 2.2 8.0 220
14/08/2019 6:10 10.8 100 41.1 0 0.0 2.8 10.1 227
14/08/2019 6:20 10.8 100 58.8 116 0.0 2.9 10.4 229
14/08/2019 6:30 10.9 100 89.4 48 0.0 2.3 8.3 230
14/08/2019 6:40 10.9 100 99.7 112 0.0 2.4 8.7 233
14/08/2019 6:50 11.0 100 172.0 554 0.0 2.2 8.0 228
14/08/2019 7:00 11.1 100 224.5 600 0.0 2.7 9.7 222
14/08/2019 7:10 11.2 100 306.7 600 0.0 2.8 9.9 221
14/08/2019 7:20 11.5 100 382.4 600 0.0 2.7 9.8 223
14/08/2019 7:30 11.8 100 346.4 500 0.0 2.6 9.2 218
14/08/2019 7:40 11.9 100 428.8 600 0.0 2.5 9.0 223
14/08/2019 7:50 12.1 100 453.8 600 0.0 2.7 9.6 221
14/08/2019 8:00 12.5 99 457.6 600 0.0 2.5 9.0 225
14/08/2019 8:10 13.2 95 479.4 600 0.0 2.1 7.6 222
14/08/2019 8:20 13.9 90 507.4 600 0.0 2.6 9.2 231
14/08/2019 8:30 14.5 86 537.2 600 0.0 2.3 8.3 228
14/08/2019 8:40 15.1 85 566.8 600 0.0 2.3 8.2 225
14/08/2019 8:50 15.6 83 540.4 536 0.0 1.8 6.3 230
14/08/2019 9:00 16.3 80 641.8 600 0.0 1.7 6.0 222
14/08/2019 9:10 16.9 78 664.1 600 0.0 1.8 6.3 224
14/08/2019 9:20 17.6 75 688.0 600 0.0 1.2 4.1 223
14/08/2019 9:30 18.3 74 712.6 600 0.0 1.1 4.0 230
14/08/2019 9:40 19.4 74 732.5 600 0.0 0.6 2.2 50
14/08/2019 9:50 20.3 67 753.7 600 0.0 0.6 2.0 209
14/08/2019 10:00 20.6 60 777.4 600 0.0 0.8 2.9 223
14/08/2019 10:10 21.3 63 791.8 600 0.0 0.4 1.4 52
14/08/2019 10:20 21.7 62 813.0 600 0.0 1.0 3.5 51
14/08/2019 10:30 21.7 58 850.0 600 0.0 0.9 3.1 41
14/08/2019 10:40 22.2 56 832.0 600 0.0 0.4 1.3 79
14/08/2019 10:50 22.8 54 854.0 600 0.0 1.2 4.4 33
14/08/2019 11:00 22.6 47 867.0 600 0.0 1.1 4.0 36
14/08/2019 11:10 23.2 47 881.0 600 0.0 1.0 3.6 10
14/08/2019 11:20 23.4 46 891.0 600 0.0 1.0 3.5 333
14/08/2019 11:30 23.9 49 887.0 600 0.0 1.3 4.7 335
14/08/2019 11:40 23.9 51 893.0 600 0.0 1.3 4.5 328
14/08/2019 11:50 23.8 51 899.0 600 0.0 1.7 6.2 335
14/08/2019 12:00 23.6 51 902.0 600 0.0 1.6 5.7 347
14/08/2019 12:10 23.8 52 902.0 600 0.0 1.3 4.8 19
14/08/2019 12:20 24.3 51 900.0 600 0.0 1.1 3.8 303
14/08/2019 12:30 24.5 48 899.0 600 0.0 1.4 4.9 348
14/08/2019 12:40 24.0 50 896.0 600 0.0 2.0 7.1 10
14/08/2019 12:50 24.2 51 891.0 600 0.0 2.1 7.6 13
14/08/2019 13:00 24.3 52 887.0 600 0.0 1.9 6.9 5
14/08/2019 13:10 24.0 52 816.0 552 0.0 1.9 6.7 23
14/08/2019 13:20 24.1 54 869.0 600 0.0 2.0 7.1 17
14/08/2019 13:30 24.2 55 855.0 600 0.0 1.9 6.7 15
14/08/2019 13:40 24.1 56 840.0 600 0.0 2.3 8.1 21
14/08/2019 13:50 23.6 55 828.0 600 0.0 2.4 8.6 14
14/08/2019 14:00 23.3 56 813.0 600 0.0 2.8 10.0 33
14/08/2019 14:10 23.0 56 797.8 600 0.0 3.0 10.9 35
14/08/2019 14:20 22.9 55 779.2 600 0.0 2.3 8.1 18
14/08/2019 14:30 22.8 55 758.9 600 0.0 2.0 7.1 28
14/08/2019 14:40 22.9 55 737.9 600 0.0 2.1 7.4 14
14/08/2019 14:50 22.6 55 716.5 600 0.0 2.6 9.5 34
14/08/2019 15:00 22.5 57 692.9 600 0.0 2.0 7.3 18
14/08/2019 15:10 22.6 58 668.0 600 0.0 2.3 8.2 22
14/08/2019 15:20 22.2 59 646.5 600 0.0 2.5 8.9 35
14/08/2019 15:30 22.2 59 623.7 600 0.0 2.3 8.4 40
14/08/2019 15:40 22.9 57 590.3 600 0.0 1.1 3.9 351
14/08/2019 15:50 22.7 58 559.3 600 0.0 2.1 7.5 30
14/08/2019 16:00 22.7 56 535.6 600 0.0 1.3 4.6 343
14/08/2019 16:10 22.9 47 506.5 600 0.0 2.0 7.3 323
14/08/2019 16:20 23.1 45 521.6 600 0.0 1.7 6.1 304
14/08/2019 16:30 23.0 44 486.7 600 0.0 1.3 4.8 347
14/08/2019 16:40 22.8 45 400.0 514 0.0 0.9 3.2 324
14/08/2019 16:50 22.8 46 265.2 362 0.0 0.8 3.0 344
14/08/2019 17:00 22.3 47 285.4 380 0.0 0.9 3.2 334
14/08/2019 17:10 22.1 48 145.5 0 0.0 1.3 4.5 296
14/08/2019 17:20 22.2 49 300.7 498 0.0 0.7 2.4 344
14/08/2019 17:30 22.3 50 151.2 170 0.0 1.3 4.8 284
14/08/2019 17:40 21.5 50 109.2 0 0.0 1.6 5.8 275
14/08/2019 17:50 21.3 48 51.9 0 0.0 1.0 3.7 285
14/08/2019 18:00 20.8 51 36.8 0 0.0 1.4 4.9 285
14/08/2019 18:10 20.6 53 58.4 0 0.0 1.6 5.7 289
14/08/2019 18:20 20.4 55 34.5 0 0.0 2.0 7.2 285
14/08/2019 18:30 20.3 56 15.3 0 0.0 1.9 6.8 285
14/08/2019 18:40 20.2 56 9.9 0 0.0 1.8 6.6 287
14/08/2019 18:50 20.1 57 0.0 0 0.0 2.1 7.6 270
14/08/2019 19:00 20.1 58 0.0 0 0.0 1.7 6.0 259
14/08/2019 19:10 20.0 59 0.0 0 0.0 2.0 7.3 270
14/08/2019 19:20 19.8 60 0.0 0 0.0 2.0 7.3 270
14/08/2019 19:30 19.9 62 0.0 0 0.0 1.7 6.2 259
14/08/2019 19:40 19.8 65 0.0 0 0.0 2.0 7.3 261
14/08/2019 19:50 19.7 68 0.0 0 0.0 1.4 5.1 253
14/08/2019 20:00 19.6 71 0.0 0 0.0 2.1 7.5 244
14/08/2019 20:10 19.2 72 0.0 0 0.0 2.2 7.9 222
14/08/2019 20:20 18.8 74 0.0 0 0.0 1.9 6.9 227
14/08/2019 20:30 18.8 75 0.0 0 0.0 2.1 7.5 226
14/08/2019 20:40 18.7 74 0.0 0 0.0 2.1 7.7 225
14/08/2019 20:50 18.5 76 0.0 0 0.0 1.9 6.9 219
14/08/2019 21:00 18.4 78 0.0 0 0.0 3.0 10.6 228
14/08/2019 21:10 18.0 83 0.0 0 0.0 2.9 10.4 225
14/08/2019 21:20 17.2 91 0.0 0 0.0 2.8 10.1 227
14/08/2019 21:30 16.9 95 0.0 0 0.0 1.6 5.8 209
14/08/2019 21:40 16.9 94 0.0 0 0.0 1.4 4.9 169
14/08/2019 21:50 17.1 93 0.0 0 0.0 0.9 3.2 164
14/08/2019 22:00 17.4 93 0.0 0 0.0 0.3 1.1 223
14/08/2019 22:10 17.4 93 0.0 0 0.0 0.6 2.3 209
14/08/2019 22:20 17.5 93 0.0 0 0.1 0.7 2.5 170
14/08/2019 22:30 17.4 95 0.0 0 0.0 0.8 2.8 212
14/08/2019 22:40 17.2 95 0.0 0 0.0 0.7 2.6 218
14/08/2019 22:50 17.2 95 0.0 0 0.0 0.6 2.2 224
14/08/2019 23:00 17.2 95 0.0 0 0.0 0.2 0.7 193
14/08/2019 23:10 17.3 95 0.0 0 0.0 0.1 0.3 347
14/08/2019 23:20 17.3 96 0.0 0 0.0 1.4 5.0 217
14/08/2019 23:30 17.0 98 0.0 0 0.0 1.7 6.0 230
14/08/2019 23:40 16.9 98 0.0 0 0.0 1.6 5.8 233
14/08/2019 23:50 17.0 97 0.0 0 0.0 1.2 4.3 224
Anterior Página 1 de 1 Siguiente

NOTA: Tipo de datos según el color:
   - Valores diarios o 10 minutos correctos
   - Valores diarios calculados a partir de un número de datos 10 minutos menor que 144 y mayor que 120, o de un número de datos semihorarios menor que 48 y mayor que 40 (caso de las estaciones de Riegos de Navarra y del MARM)
   - Valores diez minutos estimados


Contacto        Enlaces        Aviso legal